createdAt,value
2022-08-21T00:01:53.677Z,63.59
2022-08-21T00:04:22.536Z,63.62
2022-08-21T00:06:53.640Z,63.82
2022-08-21T00:09:20.761Z,63.64
2022-08-21T00:11:48.422Z,63.65
2022-08-21T00:14:16.202Z,63.56
2022-08-21T00:16:43.135Z,63.54
2022-08-21T00:19:09.982Z,63.43
2022-08-21T00:21:37.192Z,63.50
2022-08-21T00:24:05.527Z,63.40
2022-08-21T00:26:33.131Z,63.38
2022-08-21T00:29:00.104Z,63.42
2022-08-21T00:31:28.724Z,63.32
2022-08-21T00:34:00.688Z,63.37
2022-08-21T00:36:29.897Z,63.27
2022-08-21T00:38:57.563Z,63.18
2022-08-21T00:41:37.596Z,63.41
2022-08-21T00:44:11.724Z,63.19
2022-08-21T00:46:39.154Z,63.18
2022-08-21T00:49:08.790Z,63.01
2022-08-21T00:51:40.630Z,63.03
2022-08-21T00:54:17.994Z,63.01
2022-08-21T00:56:53.266Z,62.92
2022-08-21T00:59:22.146Z,62.82
2022-08-21T01:01:50.150Z,62.71
2022-08-21T01:04:17.940Z,62.55
2022-08-21T01:06:44.890Z,62.66
2022-08-21T01:09:14.083Z,62.52
2022-08-21T01:11:43.485Z,62.63
2022-08-21T01:14:13.294Z,62.58
2022-08-21T01:16:44.997Z,62.56
2022-08-21T01:19:14.151Z,62.64
2022-08-21T01:21:41.272Z,62.60
2022-08-21T01:24:08.170Z,62.73
2022-08-21T01:26:36.333Z,62.61
2022-08-21T01:29:45.737Z,62.58
2022-08-21T01:32:17.872Z,62.53
2022-08-21T01:34:48.216Z,62.66
2022-08-21T01:37:16.432Z,62.64
2022-08-21T01:39:45.874Z,62.70
2022-08-21T01:42:14.157Z,62.71
2022-08-21T01:44:42.045Z,62.73
2022-08-21T01:47:13.513Z,62.75
2022-08-21T01:49:42.117Z,62.77
2022-08-21T01:52:10.708Z,62.88
2022-08-21T01:54:39.032Z,62.81
2022-08-21T01:57:06.300Z,62.98
2022-08-21T01:59:34.668Z,62.97
2022-08-21T02:02:01.588Z,63.03
2022-08-21T02:04:28.424Z,63.34
2022-08-21T02:06:55.252Z,63.41
2022-08-21T02:09:22.135Z,63.53
2022-08-21T02:11:49.368Z,63.37
2022-08-21T02:14:32.090Z,63.53
2022-08-21T02:17:08.937Z,63.80
2022-08-21T02:19:39.494Z,63.79
2022-08-21T02:22:10.955Z,63.99
2022-08-21T02:24:54.127Z,64.11
2022-08-21T02:27:27.386Z,64.59
2022-08-21T02:29:57.648Z,64.79
2022-08-21T02:32:25.801Z,64.95
2022-08-21T02:34:52.807Z,65.11
2022-08-21T02:37:19.903Z,65.32
2022-08-21T02:39:47.047Z,65.25
2022-08-21T02:42:13.997Z,65.77
2022-08-21T02:44:40.903Z,65.95
2022-08-21T02:47:08.079Z,66.96
2022-08-21T02:49:35.095Z,67.00
2022-08-21T02:52:06.128Z,67.81
2022-08-21T02:54:32.980Z,68.02
2022-08-21T02:56:59.996Z,68.17
2022-08-21T02:59:26.940Z,68.69
2022-08-21T03:01:54.481Z,69.72
2022-08-21T03:04:22.207Z,69.81
2022-08-21T03:06:49.049Z,69.71
2022-08-21T03:09:15.869Z,70.07
2022-08-21T03:11:42.709Z,70.58
2022-08-21T03:14:09.757Z,70.71
2022-08-21T03:16:36.642Z,71.14
2022-08-21T03:19:03.731Z,70.88
2022-08-21T03:21:30.903Z,71.21
2022-08-21T03:23:57.771Z,71.57
2022-08-21T03:26:25.123Z,72.06
2022-08-21T03:28:51.936Z,72.67
2022-08-21T03:31:18.844Z,72.43
2022-08-21T03:33:45.666Z,72.42
2022-08-21T03:36:12.784Z,72.43
2022-08-21T03:38:40.662Z,72.51
2022-08-21T03:41:08.956Z,72.67
2022-08-21T03:43:36.668Z,72.67
2022-08-21T03:46:05.760Z,72.46
2022-08-21T03:48:34.461Z,72.30
2022-08-21T03:51:01.421Z,72.53
2022-08-21T03:53:28.487Z,72.53
2022-08-21T03:55:55.328Z,72.73
2022-08-21T03:58:25.863Z,72.51
2022-08-21T04:00:56.841Z,72.47
2022-08-21T04:03:24.321Z,72.43
2022-08-21T04:05:51.264Z,72.57
2022-08-21T04:08:19.064Z,72.81
2022-08-21T04:10:50.056Z,72.64
2022-08-21T04:13:17.175Z,72.54
2022-08-21T04:15:44.073Z,72.37
2022-08-21T04:18:11.469Z,72.14
2022-08-21T04:20:39.254Z,72.15
2022-08-21T04:23:06.628Z,72.00
2022-08-21T04:25:33.504Z,71.96
2022-08-21T04:28:00.307Z,71.80
2022-08-21T04:30:28.656Z,71.70
2022-08-21T04:32:58.582Z,71.70
2022-08-21T04:35:28.140Z,71.65
2022-08-21T04:37:55.582Z,71.50
2022-08-21T04:40:25.805Z,71.45
2022-08-21T04:43:07.964Z,71.30
2022-08-21T04:45:48.057Z,71.30
2022-08-21T04:48:18.170Z,70.88
2022-08-21T04:50:57.430Z,70.93
2022-08-21T04:53:53.186Z,70.87
2022-08-21T04:56:35.665Z,70.68
2022-08-21T04:59:20.981Z,70.60
2022-08-21T05:01:49.567Z,70.62
2022-08-21T05:04:23.027Z,70.70
2022-08-21T05:06:53.850Z,70.64
2022-08-21T05:09:22.667Z,70.50
2022-08-21T05:11:50.435Z,70.61
2022-08-21T05:14:17.487Z,70.45
2022-08-21T05:16:44.576Z,70.46
2022-08-21T05:19:12.134Z,70.23
2022-08-21T05:21:44.542Z,70.25
2022-08-21T05:24:12.104Z,70.37
2022-08-21T05:26:45.298Z,70.56
2022-08-21T05:29:16.474Z,70.85
2022-08-21T05:31:45.467Z,70.82
2022-08-21T05:34:16.321Z,70.83
2022-08-21T05:36:44.673Z,70.81
2022-08-21T05:39:12.021Z,71.13
2022-08-21T05:41:38.854Z,71.43
2022-08-21T05:44:10.288Z,71.80
2022-08-21T05:46:38.692Z,71.84
2022-08-21T05:49:05.607Z,71.99
2022-08-21T05:51:32.485Z,72.43
2022-08-21T05:54:00.089Z,72.62
2022-08-21T05:56:27.004Z,72.89
2022-08-21T05:58:53.841Z,73.22
2022-08-21T06:01:20.744Z,73.46
2022-08-21T06:03:47.616Z,73.82
2022-08-21T06:06:14.440Z,74.09
2022-08-21T06:08:41.382Z,74.22
2022-08-21T06:11:09.583Z,74.09
2022-08-21T06:13:37.313Z,74.27
2022-08-21T06:16:16.143Z,74.68
2022-08-21T06:18:45.903Z,74.76
2022-08-21T06:21:13.914Z,74.62
2022-08-21T06:23:41.591Z,74.72
2022-08-21T06:26:10.496Z,75.22
2022-08-21T06:28:38.250Z,75.24
2022-08-21T06:31:16.602Z,75.23
2022-08-21T06:33:43.713Z,75.14
2022-08-21T06:36:10.611Z,75.08
2022-08-21T06:38:38.444Z,75.03
2022-08-21T06:41:07.481Z,75.17
2022-08-21T06:43:39.844Z,75.16
2022-08-21T06:46:08.036Z,75.05
2022-08-21T06:48:34.909Z,74.92
2022-08-21T06:51:02.170Z,75.18
2022-08-21T06:53:29.121Z,75.11
2022-08-21T06:55:56.097Z,75.33
2022-08-21T06:58:23.052Z,75.18
2022-08-21T07:00:57.513Z,75.10
2022-08-21T07:03:36.217Z,75.09
2022-08-21T07:06:05.980Z,74.98
2022-08-21T07:08:33.529Z,75.25
2022-08-21T07:11:03.465Z,75.03
2022-08-21T07:13:30.690Z,75.08
2022-08-21T07:16:01.731Z,74.87
2022-08-21T07:18:31.665Z,74.61
2022-08-21T07:20:58.505Z,74.58
2022-08-21T07:23:34.069Z,74.37
2022-08-21T07:26:01.081Z,74.18
2022-08-21T07:28:29.685Z,74.09
2022-08-21T07:30:59.217Z,73.76
2022-08-21T07:33:28.176Z,73.48
2022-08-21T07:35:55.424Z,73.36
2022-08-21T07:38:24.076Z,73.04
2022-08-21T07:40:54.638Z,72.17
2022-08-21T07:43:22.052Z,71.62
2022-08-21T07:45:52.088Z,71.17
2022-08-21T07:48:19.195Z,70.82
2022-08-21T07:50:46.561Z,70.20
2022-08-21T07:53:13.448Z,69.42
2022-08-21T07:55:40.395Z,68.97
2022-08-21T07:58:07.405Z,68.80
2022-08-21T08:00:35.094Z,68.81
2022-08-21T08:03:03.247Z,68.66
2022-08-21T08:05:32.360Z,68.61
2022-08-21T08:07:59.320Z,68.41
2022-08-21T08:10:26.756Z,68.41
2022-08-21T08:12:54.986Z,68.34
2022-08-21T08:15:25.634Z,68.36
2022-08-21T08:17:52.959Z,68.60
2022-08-21T08:20:20.454Z,68.79
2022-08-21T08:22:50.097Z,68.75
2022-08-21T08:25:20.577Z,69.05
2022-08-21T08:27:47.664Z,69.22
2022-08-21T08:30:18.625Z,69.38
2022-08-21T08:32:46.731Z,69.44
2022-08-21T08:35:14.651Z,69.47
2022-08-21T08:37:43.155Z,69.65
2022-08-21T08:40:25.699Z,69.73
2022-08-21T08:42:52.815Z,69.79
2022-08-21T08:45:26.620Z,69.45
2022-08-21T08:48:01.313Z,69.94
2022-08-21T08:51:01.456Z,69.60
2022-08-21T08:53:37.592Z,69.68
2022-08-21T08:56:06.394Z,70.08
2022-08-21T08:58:40.079Z,69.87
2022-08-21T09:01:19.232Z,69.83
2022-08-21T09:03:52.352Z,69.86
2022-08-21T09:06:47.748Z,70.19
2022-08-21T09:09:46.498Z,69.89
2022-08-21T09:12:42.891Z,69.13
2022-08-21T09:15:42.812Z,69.07
2022-08-21T09:18:12.134Z,68.41
2022-08-21T09:20:56.872Z,67.60
2022-08-21T09:24:05.484Z,66.80
2022-08-21T09:27:05.117Z,66.24
2022-08-21T09:29:36.600Z,65.92
2022-08-21T09:32:37.675Z,64.77
2022-08-21T09:35:06.464Z,63.92
2022-08-21T09:37:47.136Z,63.73
2022-08-21T09:40:32.148Z,63.60
2022-08-21T09:43:09.454Z,62.85
2022-08-21T09:45:36.545Z,62.26
2022-08-21T09:48:32.494Z,61.97
2022-08-21T09:51:10.844Z,61.80
2022-08-21T09:53:44.970Z,61.48
2022-08-21T09:56:46.252Z,61.36
2022-08-21T09:59:36.435Z,61.12
2022-08-21T10:02:41.821Z,60.95
2022-08-21T10:05:26.313Z,60.78
2022-08-21T10:07:53.224Z,60.46
2022-08-21T10:10:33.063Z,60.33
2022-08-21T10:13:30.316Z,59.62
2022-08-21T10:15:57.019Z,58.85
2022-08-21T10:18:56.640Z,58.12
2022-08-21T10:21:35.552Z,57.61
2022-08-21T10:24:31.072Z,57.28
2022-08-21T10:27:35.813Z,57.10
2022-08-21T10:30:02.587Z,56.33
2022-08-21T10:33:03.272Z,56.54
2022-08-21T10:35:40.472Z,55.90
2022-08-21T10:38:50.827Z,55.63
2022-08-21T10:42:06.294Z,54.55
2022-08-21T10:44:35.833Z,52.65
2022-08-21T10:47:19.304Z,52.51
2022-08-21T10:49:51.818Z,52.56
2022-08-21T10:53:01.482Z,51.92
2022-08-21T10:55:39.898Z,50.91
2022-08-21T10:58:29.380Z,50.85
2022-08-21T11:01:24.940Z,51.15
2022-08-21T11:04:12.375Z,51.27
2022-08-21T11:06:47.960Z,50.57
2022-08-21T11:09:20.231Z,50.71
2022-08-21T11:11:59.442Z,51.12
2022-08-21T11:15:29.255Z,51.43
2022-08-21T11:18:02.179Z,51.67
2022-08-21T11:20:47.267Z,51.27
2022-08-21T11:23:31.412Z,51.38
2022-08-21T11:26:29.684Z,51.45
2022-08-21T11:29:06.767Z,51.78
2022-08-21T11:31:58.528Z,52.24
2022-08-21T11:34:57.625Z,51.95
2022-08-21T11:37:56.023Z,52.04
2022-08-21T11:41:23.330Z,51.79
2022-08-21T11:44:09.631Z,51.36
2022-08-21T11:47:49.943Z,50.97
2022-08-21T11:50:35.010Z,51.20
2022-08-21T11:53:18.394Z,51.61
2022-08-21T11:55:58.154Z,51.00
2022-08-21T11:58:42.335Z,50.34
2022-08-21T12:01:22.979Z,50.49
2022-08-21T12:04:04.780Z,50.36
2022-08-21T12:06:39.776Z,50.51
2022-08-21T12:09:25.965Z,50.84
2022-08-21T12:12:06.866Z,50.57
2022-08-21T12:15:22.044Z,49.39
2022-08-21T12:18:06.531Z,49.83
2022-08-21T12:20:40.233Z,50.29
2022-08-21T12:23:43.399Z,50.07
2022-08-21T12:26:17.655Z,49.45
2022-08-21T12:28:45.179Z,49.19
2022-08-21T12:31:25.921Z,49.59
2022-08-21T12:34:00.279Z,49.72
2022-08-21T12:36:53.864Z,49.29
2022-08-21T12:39:27.154Z,49.41
2022-08-21T12:42:24.648Z,49.38
2022-08-21T12:44:56.264Z,49.35
2022-08-21T12:47:45.617Z,49.53
2022-08-21T12:50:24.972Z,49.40
2022-08-21T12:53:24.752Z,49.46
2022-08-21T12:55:51.923Z,49.39
2022-08-21T12:58:24.812Z,48.69
2022-08-21T13:01:30.928Z,48.22
2022-08-21T13:04:12.608Z,48.50
2022-08-21T13:06:44.646Z,48.84
2022-08-21T13:09:18.933Z,48.62
2022-08-21T13:11:49.659Z,48.47
2022-08-21T13:14:38.334Z,48.43
2022-08-21T13:17:23.306Z,48.78
2022-08-21T13:20:10.265Z,48.96
2022-08-21T13:22:45.418Z,49.34
2022-08-21T13:25:16.293Z,49.37
2022-08-21T13:27:56.721Z,49.41
2022-08-21T13:30:24.308Z,49.58
2022-08-21T13:32:57.815Z,49.65
2022-08-21T13:35:37.239Z,49.32
2022-08-21T13:38:06.481Z,49.44
2022-08-21T13:40:47.487Z,49.37
2022-08-21T13:43:21.363Z,49.76
2022-08-21T13:45:53.358Z,49.94
2022-08-21T13:48:23.674Z,49.74
2022-08-21T13:50:51.594Z,49.74
2022-08-21T13:53:52.906Z,49.75
2022-08-21T13:56:43.420Z,49.97
2022-08-21T13:59:10.359Z,49.96
2022-08-21T14:02:18.628Z,49.77
2022-08-21T14:05:00.336Z,50.06
2022-08-21T14:07:36.576Z,50.11
2022-08-21T14:10:14.025Z,49.40
2022-08-21T14:13:06.816Z,49.27
2022-08-21T14:15:35.392Z,49.49
2022-08-21T14:18:17.733Z,49.94
2022-08-21T14:20:45.488Z,50.38
2022-08-21T14:23:23.830Z,50.44
2022-08-21T14:25:50.756Z,50.51
2022-08-21T14:28:34.816Z,50.65
2022-08-21T14:31:21.159Z,50.56
2022-08-21T14:33:49.281Z,50.54
2022-08-21T14:36:16.124Z,50.30
2022-08-21T14:38:43.228Z,50.55
2022-08-21T14:41:21.807Z,50.76
2022-08-21T14:43:57.760Z,51.12
2022-08-21T14:46:35.901Z,51.20
2022-08-21T14:49:04.715Z,51.11
2022-08-21T14:51:32.224Z,51.32
2022-08-21T14:53:59.077Z,51.57
2022-08-21T14:56:26.305Z,51.82
2022-08-21T14:58:56.248Z,51.99
2022-08-21T15:01:23.685Z,51.99
2022-08-21T15:03:51.683Z,51.89
2022-08-21T15:06:20.857Z,52.20
2022-08-21T15:08:48.962Z,52.01
2022-08-21T15:11:41.724Z,52.22
2022-08-21T15:14:19.240Z,52.36
2022-08-21T15:16:47.707Z,52.61
2022-08-21T15:19:14.668Z,52.69
2022-08-21T15:21:41.544Z,52.70
2022-08-21T15:24:08.401Z,52.76
2022-08-21T15:26:37.136Z,53.24
2022-08-21T15:29:07.189Z,53.49
2022-08-21T15:31:35.348Z,53.82
2022-08-21T15:34:02.878Z,54.00
2022-08-21T15:36:29.810Z,53.98
2022-08-21T15:38:56.698Z,54.14
2022-08-21T15:41:23.707Z,54.20
2022-08-21T15:43:53.653Z,54.11
2022-08-21T15:46:21.933Z,54.26
2022-08-21T15:48:48.820Z,54.44
2022-08-21T15:51:17.465Z,54.30
2022-08-21T15:53:46.809Z,54.54
2022-08-21T15:56:28.256Z,54.69
2022-08-21T15:59:02.308Z,54.72
2022-08-21T16:01:29.542Z,55.02
2022-08-21T16:04:20.320Z,55.33
2022-08-21T16:06:54.140Z,55.63
2022-08-21T16:09:23.553Z,55.98
2022-08-21T16:11:51.561Z,56.19
2022-08-21T16:14:18.716Z,56.61
2022-08-21T16:16:46.103Z,56.32
2022-08-21T16:19:14.265Z,56.88
2022-08-21T16:21:41.448Z,56.82
2022-08-21T16:24:08.366Z,57.30
2022-08-21T16:26:35.621Z,57.72
2022-08-21T16:29:06.893Z,58.33
2022-08-21T16:31:34.501Z,58.66
2022-08-21T16:34:02.212Z,59.26
2022-08-21T16:36:29.455Z,59.53
2022-08-21T16:38:58.648Z,60.18
2022-08-21T16:41:31.555Z,60.03
2022-08-21T16:44:00.827Z,60.31
2022-08-21T16:46:32.803Z,60.43
2022-08-21T16:48:59.838Z,60.44
2022-08-21T16:51:27.028Z,60.30
2022-08-21T16:53:54.163Z,60.45
2022-08-21T16:56:21.396Z,60.48
2022-08-21T16:58:49.788Z,60.78
2022-08-21T17:01:20.559Z,60.82
2022-08-21T17:03:50.949Z,61.35
2022-08-21T17:06:19.540Z,61.54
2022-08-21T17:08:47.660Z,61.70
2022-08-21T17:11:38.020Z,62.01
2022-08-21T17:14:19.056Z,62.19
2022-08-21T17:16:51.659Z,62.76
2022-08-21T17:19:19.340Z,63.02
2022-08-21T17:21:46.865Z,62.93
2022-08-21T17:24:14.904Z,63.46
2022-08-21T17:26:44.054Z,63.74
2022-08-21T17:29:14.599Z,64.51
2022-08-21T17:31:43.268Z,64.43
2022-08-21T17:34:11.493Z,64.67
2022-08-21T17:36:38.388Z,64.80
2022-08-21T17:39:05.551Z,64.78
2022-08-21T17:41:33.721Z,64.92
2022-08-21T17:44:06.573Z,64.94
2022-08-21T17:46:33.538Z,65.12
2022-08-21T17:49:00.844Z,65.23
2022-08-21T17:51:28.597Z,65.33
2022-08-21T17:53:55.600Z,65.47
2022-08-21T17:56:29.255Z,65.39
2022-08-21T17:58:56.784Z,65.27
2022-08-21T18:01:27.691Z,65.58
2022-08-21T18:03:54.620Z,65.49
2022-08-21T18:06:21.470Z,65.47
2022-08-21T18:08:48.312Z,65.52
2022-08-21T18:11:23.710Z,65.46
2022-08-21T18:13:53.544Z,65.41
2022-08-21T18:16:21.871Z,65.50
2022-08-21T18:18:50.815Z,65.68
2022-08-21T18:21:18.476Z,65.60
2022-08-21T18:23:45.716Z,65.59
2022-08-21T18:26:29.128Z,65.73
2022-08-21T18:28:59.894Z,65.54
2022-08-21T18:31:33.024Z,65.64
2022-08-21T18:34:05.495Z,65.68
2022-08-21T18:36:32.363Z,65.73
2022-08-21T18:39:19.385Z,65.84
2022-08-21T18:41:47.487Z,65.96
2022-08-21T18:44:16.670Z,65.77
2022-08-21T18:46:51.829Z,65.93
2022-08-21T18:49:18.892Z,66.00
2022-08-21T18:51:46.750Z,66.15
2022-08-21T18:54:14.621Z,66.14
2022-08-21T18:56:42.578Z,66.33
2022-08-21T18:59:12.065Z,66.49
2022-08-21T19:01:40.535Z,66.54
2022-08-21T19:04:08.935Z,66.66
2022-08-21T19:06:37.014Z,66.78
2022-08-21T19:09:08.960Z,66.98
2022-08-21T19:11:38.757Z,67.02
2022-08-21T19:17:02.150Z,67.53
2022-08-21T19:19:28.969Z,67.64
2022-08-21T19:21:57.645Z,67.75
2022-08-21T19:24:26.425Z,67.85
2022-08-21T19:26:55.869Z,68.01
2022-08-21T19:29:34.559Z,68.45
2022-08-21T19:32:06.950Z,68.20
2022-08-21T19:34:36.576Z,68.80
2022-08-21T19:37:06.377Z,69.34
2022-08-21T19:39:40.387Z,69.37
2022-08-21T19:42:28.777Z,69.22
2022-08-21T19:45:12.936Z,69.30
2022-08-21T19:47:47.823Z,69.86
2022-08-21T19:50:18.069Z,69.93
2022-08-21T19:55:37.255Z,70.26
2022-08-21T19:58:22.675Z,70.33
2022-08-21T20:00:49.753Z,70.51
2022-08-21T20:03:18.224Z,70.42
2022-08-21T20:05:48.135Z,70.34
2022-08-21T20:08:20.556Z,70.56
2022-08-21T20:10:49.979Z,70.48
2022-08-21T20:13:22.168Z,70.44
2022-08-21T20:15:51.209Z,70.77
2022-08-21T20:18:18.597Z,70.98
2022-08-21T20:20:46.425Z,71.26
2022-08-21T20:23:15.180Z,71.36
2022-08-21T20:25:45.502Z,71.38
2022-08-21T20:28:13.801Z,71.50
2022-08-21T20:30:46.830Z,71.58
2022-08-21T20:33:30.076Z,71.57
2022-08-21T20:35:57.108Z,71.69
2022-08-21T20:38:23.959Z,71.75
2022-08-21T20:40:54.179Z,71.73
2022-08-21T20:43:23.188Z,71.87
2022-08-21T20:45:50.419Z,71.92
2022-08-21T20:48:49.156Z,71.91
2022-08-21T20:51:40.276Z,71.77
2022-08-21T20:54:28.856Z,71.87
2022-08-21T20:57:37.957Z,71.95
2022-08-21T21:00:14.302Z,71.84
2022-08-21T21:06:20.605Z,71.81
2022-08-21T21:08:57.848Z,71.89
2022-08-21T21:11:44.856Z,71.92
2022-08-21T21:14:23.477Z,71.72
2022-08-21T21:17:01.588Z,71.75
2022-08-21T21:19:48.340Z,71.77
2022-08-21T21:22:31.482Z,71.77
2022-08-21T21:25:19.473Z,71.49
2022-08-21T21:28:00.536Z,71.63
2022-08-21T21:30:36.865Z,71.60
2022-08-21T21:33:04.313Z,71.49
2022-08-21T21:35:38.784Z,71.36
2022-08-21T21:38:23.580Z,71.23
2022-08-21T21:40:58.896Z,71.12
2022-08-21T21:44:02.784Z,71.10
2022-08-21T21:46:53.558Z,71.12
2022-08-21T21:49:29.153Z,71.10
2022-08-21T21:52:18.501Z,71.21
2022-08-21T21:54:57.378Z,71.09
2022-08-21T21:57:42.821Z,71.15
2022-08-21T22:00:41.710Z,71.13
2022-08-21T22:03:52.544Z,70.82
2022-08-21T22:06:24.311Z,71.08
2022-08-21T22:09:02.973Z,71.13
2022-08-21T22:11:43.822Z,71.19
2022-08-21T22:17:35.608Z,71.59
2022-08-21T22:20:16.974Z,71.55
2022-08-21T22:22:45.876Z,71.49
2022-08-21T22:25:25.607Z,71.74
2022-08-21T22:28:13.501Z,71.92
2022-08-21T22:30:55.224Z,72.01
2022-08-21T22:33:26.632Z,72.07
2022-08-21T22:35:58.259Z,72.29
2022-08-21T22:38:36.320Z,72.68
2022-08-21T22:41:23.816Z,72.81
2022-08-21T22:44:01.713Z,72.83
2022-08-21T22:46:55.543Z,73.35
2022-08-21T22:49:43.552Z,73.00
2022-08-21T22:52:26.951Z,73.36
2022-08-21T22:54:59.985Z,73.53
2022-08-21T22:57:35.267Z,73.79
2022-08-21T23:00:13.234Z,73.81
2022-08-21T23:02:49.306Z,73.97
2022-08-21T23:05:43.074Z,73.99
2022-08-21T23:08:37.223Z,73.97
2022-08-21T23:11:14.568Z,74.10
2022-08-21T23:13:46.672Z,74.29
2022-08-21T23:16:37.188Z,74.53
2022-08-21T23:20:01.997Z,74.48
2022-08-21T23:22:57.623Z,74.52
2022-08-21T23:26:01.430Z,74.79
2022-08-21T23:28:49.118Z,74.82
2022-08-21T23:31:45.973Z,74.88
2022-08-21T23:34:43.224Z,74.96
2022-08-21T23:37:51.583Z,75.07
2022-08-21T23:41:03.184Z,75.18
2022-08-21T23:43:56.375Z,74.89
2022-08-21T23:46:48.640Z,75.16
2022-08-21T23:49:56.412Z,75.04
2022-08-21T23:52:43.480Z,74.97
2022-08-21T23:55:55.038Z,75.03
2022-08-21T23:59:21.904Z,74.86
